createdAt,value
2019-02-18T00:01:24.191Z,13.87
2019-02-18T00:03:54.076Z,13.47
2019-02-18T00:06:23.930Z,12.70
2019-02-18T00:08:55.550Z,13.23
2019-02-18T00:11:25.464Z,12.97
2019-02-18T00:13:55.331Z,12.07
2019-02-18T00:16:25.089Z,12.70
2019-02-18T00:18:54.991Z,12.30
2019-02-18T00:21:24.721Z,12.40
2019-02-18T00:23:56.319Z,13.50
2019-02-18T00:26:26.383Z,13.37
2019-02-18T00:28:56.131Z,13.70
2019-02-18T00:31:25.791Z,13.80
2019-02-18T00:33:55.511Z,12.67
2019-02-18T00:36:25.467Z,12.37
2019-02-18T00:38:55.360Z,12.63
2019-02-18T00:41:25.163Z,12.57
2019-02-18T00:43:55.188Z,12.97
2019-02-18T00:46:25.098Z,12.20
2019-02-18T00:48:54.799Z,12.03
2019-02-18T00:51:24.747Z,12.67
2019-02-18T00:53:54.615Z,12.57
2019-02-18T00:56:24.457Z,11.33
2019-02-18T00:58:54.272Z,11.27
2019-02-18T01:01:24.159Z,11.93
2019-02-18T01:03:54.111Z,12.00
2019-02-18T01:06:24.205Z,12.57
2019-02-18T01:08:54.130Z,11.67
2019-02-18T01:11:23.860Z,11.20
2019-02-18T01:13:53.508Z,11.63
2019-02-18T01:16:23.440Z,12.57
2019-02-18T01:18:53.168Z,11.80
2019-02-18T01:21:22.863Z,12.30
2019-02-18T01:23:52.579Z,11.70
2019-02-18T01:26:22.294Z,11.77
2019-02-18T01:28:51.997Z,12.20
2019-02-18T01:31:21.727Z,11.40
2019-02-18T01:33:51.425Z,12.10
2019-02-18T01:36:23.078Z,12.50
2019-02-18T01:38:52.703Z,12.40
2019-02-18T01:41:24.213Z,12.17
2019-02-18T01:43:53.983Z,12.57
2019-02-18T01:46:23.775Z,13.23
2019-02-18T01:48:53.559Z,13.00
2019-02-18T01:51:23.184Z,13.10
2019-02-18T01:53:52.989Z,11.83
2019-02-18T01:56:22.677Z,12.27
2019-02-18T01:58:52.429Z,13.73
2019-02-18T02:01:22.191Z,13.33
2019-02-18T02:03:51.945Z,12.73
2019-02-18T02:06:21.759Z,13.60
2019-02-18T02:08:51.718Z,14.90
2019-02-18T02:11:21.363Z,14.80
2019-02-18T02:13:51.303Z,14.33
2019-02-18T02:16:20.976Z,13.23
2019-02-18T02:18:50.923Z,14.57
2019-02-18T02:21:20.599Z,13.57
2019-02-18T02:23:50.330Z,12.97
2019-02-18T02:26:20.091Z,13.90
2019-02-18T02:28:49.889Z,13.67
2019-02-18T02:31:19.879Z,13.80
2019-02-18T02:33:49.722Z,14.10
2019-02-18T02:36:19.503Z,15.57
2019-02-18T02:38:49.263Z,15.23
2019-02-18T02:41:19.087Z,14.60
2019-02-18T02:43:48.747Z,14.97
2019-02-18T02:46:18.764Z,13.93
2019-02-18T02:48:48.649Z,13.43
2019-02-18T02:51:18.395Z,13.50
2019-02-18T02:53:48.390Z,14.17
2019-02-18T02:56:18.327Z,14.27
2019-02-18T02:58:48.016Z,13.37
2019-02-18T03:01:17.711Z,13.43
2019-02-18T03:03:47.457Z,13.63
2019-02-18T03:06:17.120Z,13.50
2019-02-18T03:08:47.072Z,14.57
2019-02-18T03:11:16.889Z,13.43
2019-02-18T03:13:46.680Z,14.33
2019-02-18T03:16:16.375Z,13.00
2019-02-18T03:18:46.300Z,13.83
2019-02-18T03:21:16.151Z,13.53
2019-02-18T03:23:45.931Z,14.40
2019-02-18T03:26:15.891Z,13.70
2019-02-18T03:29:37.075Z,13.30
2019-02-18T03:32:06.905Z,13.70
2019-02-18T03:34:40.267Z,13.70
2019-02-18T03:37:10.019Z,13.70
2019-02-18T03:39:39.788Z,14.10
2019-02-18T03:42:09.599Z,14.50
2019-02-18T03:44:39.567Z,13.33
2019-02-18T03:47:09.427Z,14.10
2019-02-18T03:49:39.211Z,12.87
2019-02-18T03:52:09.063Z,12.73
2019-02-18T03:54:38.860Z,14.67
2019-02-18T03:57:08.706Z,13.33
2019-02-18T03:59:38.515Z,13.00
2019-02-18T04:02:08.346Z,13.57
2019-02-18T04:04:38.221Z,13.60
2019-02-18T04:07:07.941Z,14.23
2019-02-18T04:09:37.648Z,13.60
2019-02-18T04:12:07.351Z,14.03
2019-02-18T04:14:37.040Z,12.97
2019-02-18T04:17:06.796Z,13.53
2019-02-18T04:19:36.457Z,14.43
2019-02-18T04:22:06.204Z,14.53
2019-02-18T04:24:37.095Z,13.43
2019-02-18T04:27:07.079Z,14.17
2019-02-18T04:29:36.839Z,14.93
2019-02-18T04:32:06.720Z,13.97
2019-02-18T04:34:36.395Z,14.57
2019-02-18T04:37:06.144Z,14.47
2019-02-18T04:39:36.030Z,14.77
2019-02-18T04:42:05.723Z,14.73
2019-02-18T04:44:35.477Z,14.00
2019-02-18T04:47:05.344Z,15.13
2019-02-18T04:49:35.319Z,14.67
2019-02-18T04:52:05.164Z,13.80
2019-02-18T04:54:35.200Z,15.03
2019-02-18T04:57:05.027Z,15.37
2019-02-18T04:59:34.701Z,14.53
2019-02-18T05:02:04.491Z,14.37
2019-02-18T05:04:34.327Z,13.67
2019-02-18T05:07:04.275Z,14.40
2019-02-18T05:09:33.968Z,14.17
2019-02-18T05:12:03.695Z,13.90
2019-02-18T05:14:33.399Z,14.27
2019-02-18T05:17:03.091Z,15.23
2019-02-18T05:19:32.797Z,14.57
2019-02-18T05:22:02.399Z,14.47
2019-02-18T05:24:31.976Z,13.33
2019-02-18T05:27:01.556Z,14.90
2019-02-18T05:29:31.348Z,15.20
2019-02-18T05:32:01.163Z,13.40
2019-02-18T05:34:31.097Z,14.07
2019-02-18T05:37:01.096Z,15.33
2019-02-18T05:39:30.810Z,14.93
2019-02-18T05:42:02.014Z,13.53
2019-02-18T05:44:31.643Z,13.97
2019-02-18T05:47:01.368Z,14.67
2019-02-18T05:49:31.085Z,13.83
2019-02-18T05:52:00.952Z,14.13
2019-02-18T05:54:30.675Z,13.73
2019-02-18T05:57:00.438Z,14.90
2019-02-18T05:59:30.109Z,14.00
2019-02-18T06:01:59.817Z,15.40
2019-02-18T06:04:29.700Z,16.80
2019-02-18T06:06:59.458Z,14.70
2019-02-18T06:09:30.368Z,15.60
2019-02-18T06:12:00.381Z,15.00
2019-02-18T06:14:30.236Z,15.10
2019-02-18T06:17:02.734Z,14.80
2019-02-18T06:19:32.295Z,16.30
2019-02-18T06:22:02.033Z,15.47
2019-02-18T06:24:31.737Z,14.60
2019-02-18T06:27:01.617Z,15.93
2019-02-18T06:29:31.339Z,14.37
2019-02-18T06:32:01.160Z,15.50
2019-02-18T06:34:31.116Z,14.57
2019-02-18T06:37:00.882Z,15.80
2019-02-18T06:39:40.904Z,15.23
2019-02-18T06:42:02.167Z,16.13
2019-02-18T06:44:40.345Z,14.43
2019-02-18T06:47:17.962Z,15.23
2019-02-18T06:49:48.213Z,15.37
2019-02-18T06:52:17.972Z,16.40
2019-02-18T06:54:47.705Z,16.37
2019-02-18T06:57:32.010Z,16.53
2019-02-18T07:00:07.716Z,16.40
2019-02-18T07:02:43.969Z,15.50
2019-02-18T07:05:20.171Z,15.13
2019-02-18T07:08:11.720Z,15.37
2019-02-18T07:10:53.892Z,16.23
2019-02-18T07:13:23.942Z,16.13
2019-02-18T07:15:53.885Z,15.47
2019-02-18T07:18:23.612Z,15.43
2019-02-18T07:20:53.508Z,17.10
2019-02-18T07:23:23.331Z,16.57
2019-02-18T07:25:53.160Z,15.97
2019-02-18T07:28:23.032Z,17.93
2019-02-18T07:30:52.749Z,17.90
2019-02-18T07:33:22.512Z,16.87
2019-02-18T07:36:11.191Z,17.20
2019-02-18T07:38:41.153Z,18.80
2019-02-18T07:41:11.219Z,18.17
2019-02-18T07:43:41.056Z,18.37
2019-02-18T07:46:10.764Z,18.47
2019-02-18T07:48:40.638Z,18.80
2019-02-18T07:51:10.367Z,20.83
2019-02-18T07:53:40.115Z,21.07
2019-02-18T07:56:09.820Z,20.33
2019-02-18T07:58:39.547Z,20.50
2019-02-18T08:01:09.447Z,22.90
2019-02-18T08:03:39.392Z,24.00
2019-02-18T08:06:09.389Z,23.40
2019-02-18T08:08:39.415Z,24.07
2019-02-18T08:11:09.076Z,24.93
2019-02-18T08:13:39.008Z,24.90
2019-02-18T08:16:08.783Z,25.07
2019-02-18T08:18:38.411Z,28.13
2019-02-18T08:21:08.477Z,28.53
2019-02-18T08:23:38.277Z,28.83
2019-02-18T08:26:08.576Z,27.43
2019-02-18T08:28:57.299Z,24.60
2019-02-18T08:31:27.265Z,25.30
2019-02-18T08:33:57.171Z,26.87
2019-02-18T08:36:27.138Z,26.37
2019-02-18T08:38:56.764Z,26.47
2019-02-18T08:41:26.722Z,26.67
2019-02-18T08:43:56.651Z,27.60
2019-02-18T08:46:26.549Z,28.63
2019-02-18T08:48:56.505Z,28.50
2019-02-18T08:51:26.191Z,28.53
2019-02-18T08:53:56.079Z,28.90
2019-02-18T08:56:25.947Z,30.87
2019-02-18T08:58:55.704Z,30.70
2019-02-18T09:01:25.396Z,31.90
2019-02-18T09:03:55.364Z,30.83
2019-02-18T09:06:25.015Z,33.20
2019-02-18T09:08:54.761Z,33.00
2019-02-18T09:11:24.712Z,33.07
2019-02-18T09:13:54.391Z,36.20
2019-02-18T09:16:24.103Z,34.87
2019-02-18T09:18:54.230Z,36.20
2019-02-18T09:21:24.500Z,37.50
2019-02-18T09:24:02.165Z,36.27
2019-02-18T09:26:33.565Z,36.20
2019-02-18T09:29:03.316Z,36.93
2019-02-18T09:31:34.955Z,36.43
2019-02-18T09:34:04.984Z,38.33
2019-02-18T09:36:34.796Z,32.87
2019-02-18T09:39:06.183Z,32.20
2019-02-18T09:41:36.140Z,34.47
2019-02-18T09:44:06.076Z,34.87
2019-02-18T09:46:35.787Z,32.60
2019-02-18T09:49:05.457Z,36.27
2019-02-18T09:51:35.208Z,36.80
2019-02-18T09:54:05.338Z,37.00
2019-02-18T09:56:36.926Z,36.83
2019-02-18T09:59:06.560Z,34.87
2019-02-18T10:01:36.318Z,37.10
2019-02-18T10:04:06.199Z,36.23
2019-02-18T10:06:35.948Z,35.80
2019-02-18T10:09:07.096Z,35.20
2019-02-18T10:11:36.979Z,36.30
2019-02-18T10:14:06.986Z,35.47
2019-02-18T10:16:36.991Z,38.67
2019-02-18T10:19:06.924Z,40.03
2019-02-18T10:21:36.635Z,39.83
2019-02-18T10:24:06.319Z,40.43
2019-02-18T10:26:36.055Z,40.37
2019-02-18T10:29:05.761Z,40.03
2019-02-18T10:31:35.469Z,41.27
2019-02-18T10:34:05.159Z,41.47
2019-02-18T10:36:34.937Z,40.83
2019-02-18T10:39:05.437Z,41.50
2019-02-18T10:41:35.530Z,42.90
2019-02-18T10:44:05.402Z,41.57
2019-02-18T10:46:35.149Z,38.97
2019-02-18T10:49:18.914Z,40.30
2019-02-18T10:51:38.048Z,38.33
2019-02-18T10:54:08.181Z,37.90
2019-02-18T10:56:37.920Z,39.17
2019-02-18T10:59:07.799Z,46.83
2019-02-18T11:01:37.654Z,46.43
2019-02-18T11:04:07.427Z,45.17
2019-02-18T11:06:37.109Z,46.03
2019-02-18T11:09:10.710Z,44.60
2019-02-18T11:11:40.447Z,46.73
2019-02-18T11:14:10.176Z,44.60
2019-02-18T11:16:40.287Z,42.17
2019-02-18T11:19:10.207Z,42.70
2019-02-18T11:21:40.136Z,43.07
2019-02-18T11:24:10.203Z,42.87
2019-02-18T11:26:40.067Z,40.60
2019-02-18T11:29:10.299Z,40.50
2019-02-18T11:31:40.165Z,41.87
2019-02-18T11:34:10.001Z,41.23
2019-02-18T11:36:39.835Z,43.00
2019-02-18T11:39:12.819Z,40.07
2019-02-18T11:41:43.050Z,39.03
2019-02-18T11:44:12.860Z,39.90
2019-02-18T11:46:42.751Z,40.67
2019-02-18T11:49:12.579Z,40.53
2019-02-18T11:51:42.384Z,42.00
2019-02-18T11:54:12.292Z,40.53
2019-02-18T11:56:43.732Z,36.90
2019-02-18T11:59:23.760Z,38.57
2019-02-18T12:01:45.249Z,39.97
2019-02-18T12:04:14.916Z,38.93
2019-02-18T12:06:44.632Z,40.27
2019-02-18T12:09:14.681Z,39.43
2019-02-18T12:11:44.424Z,39.97
2019-02-18T12:14:14.191Z,38.83
2019-02-18T12:16:44.063Z,40.07
2019-02-18T12:19:13.793Z,37.37
2019-02-18T12:21:43.729Z,38.23
2019-02-18T12:24:13.815Z,39.47
2019-02-18T12:26:43.515Z,40.07
2019-02-18T12:29:13.253Z,40.00
2019-02-18T12:31:42.926Z,39.57
2019-02-18T12:34:12.692Z,37.40
2019-02-18T12:36:42.337Z,35.93
2019-02-18T12:39:14.927Z,37.07
2019-02-18T12:41:48.641Z,37.27
2019-02-18T12:44:16.188Z,38.57
2019-02-18T12:47:05.693Z,36.90
2019-02-18T12:49:35.508Z,37.50
2019-02-18T12:52:05.315Z,37.13
2019-02-18T12:54:35.235Z,37.77
2019-02-18T12:57:05.020Z,38.40
2019-02-18T12:59:34.931Z,39.40
2019-02-18T13:02:04.809Z,38.10
2019-02-18T13:04:34.979Z,37.47
2019-02-18T13:07:04.702Z,39.17
2019-02-18T13:09:34.419Z,38.60
2019-02-18T13:12:04.108Z,38.17
2019-02-18T13:14:33.943Z,37.90
2019-02-18T13:17:04.056Z,36.90
2019-02-18T13:19:33.855Z,37.07
2019-02-18T13:22:03.793Z,35.70
2019-02-18T13:24:33.623Z,35.97
2019-02-18T13:27:03.404Z,33.83
2019-02-18T13:29:33.096Z,34.80
2019-02-18T13:32:02.827Z,35.93
2019-02-18T13:34:34.245Z,36.37
2019-02-18T13:37:06.105Z,35.40
2019-02-18T13:39:35.868Z,37.07
2019-02-18T13:42:07.505Z,36.73
2019-02-18T13:44:37.116Z,37.50
2019-02-18T13:47:06.847Z,36.27
2019-02-18T13:49:37.250Z,36.70
2019-02-18T13:52:07.148Z,35.37
2019-02-18T13:54:37.088Z,34.60
2019-02-18T13:57:09.954Z,35.33
2019-02-18T13:59:38.131Z,34.63
2019-02-18T14:02:08.484Z,34.40
2019-02-18T14:04:38.709Z,33.43
2019-02-18T14:07:08.601Z,35.33
2019-02-18T14:09:38.419Z,32.17
2019-02-18T14:12:15.969Z,33.57
2019-02-18T14:14:40.016Z,29.83
2019-02-18T14:17:10.207Z,30.63
2019-02-18T14:19:40.093Z,30.60
2019-02-18T14:22:10.772Z,30.70
2019-02-18T14:24:40.756Z,30.13
2019-02-18T14:27:10.704Z,27.53
2019-02-18T14:29:40.599Z,30.47
2019-02-18T14:32:10.719Z,30.63
2019-02-18T14:34:40.618Z,34.37
2019-02-18T14:37:10.261Z,29.83
2019-02-18T14:39:40.133Z,29.50
2019-02-18T14:42:09.824Z,27.90
2019-02-18T14:44:39.632Z,28.07
2019-02-18T14:47:09.339Z,28.00
2019-02-18T14:49:39.096Z,28.00
2019-02-18T14:52:09.240Z,26.50
2019-02-18T14:54:51.752Z,26.10
2019-02-18T14:57:22.045Z,25.90
2019-02-18T14:59:52.735Z,24.33
2019-02-18T15:02:22.491Z,26.33
2019-02-18T15:04:52.449Z,22.60
2019-02-18T15:07:22.196Z,22.37
2019-02-18T15:09:51.815Z,20.07
2019-02-18T15:12:22.171Z,16.83
2019-02-18T15:14:51.858Z,16.87
2019-02-18T15:17:21.559Z,21.03
2019-02-18T15:19:51.474Z,18.43
2019-02-18T15:22:21.541Z,17.47
2019-02-18T15:24:51.223Z,17.37
2019-02-18T15:27:21.249Z,16.53
2019-02-18T15:29:52.371Z,16.57
2019-02-18T15:32:22.071Z,15.67
2019-02-18T15:34:52.021Z,14.67
2019-02-18T15:37:21.696Z,15.10
2019-02-18T15:39:51.819Z,15.47
2019-02-18T15:42:21.632Z,11.70
2019-02-18T15:44:51.659Z,13.60
2019-02-18T15:47:21.706Z,12.07
2019-02-18T15:49:52.004Z,11.60
2019-02-18T15:52:22.025Z,11.53
2019-02-18T15:54:51.753Z,10.27
2019-02-18T15:57:21.748Z,10.40
2019-02-18T15:59:51.753Z,10.07
2019-02-18T16:02:21.700Z,9.63
2019-02-18T16:04:51.367Z,8.97
2019-02-18T16:07:21.096Z,10.53
2019-02-18T16:09:50.800Z,10.33
2019-02-18T16:12:20.516Z,10.43
2019-02-18T16:14:50.253Z,10.17
2019-02-18T16:17:19.931Z,10.73
2019-02-18T16:19:49.608Z,10.17
2019-02-18T16:22:19.751Z,10.50
2019-02-18T16:24:49.459Z,9.77
2019-02-18T16:27:19.288Z,10.23
2019-02-18T16:29:49.315Z,9.43
2019-02-18T16:32:18.979Z,10.60
2019-02-18T16:34:48.724Z,10.63
2019-02-18T16:37:18.893Z,8.70
2019-02-18T16:39:48.540Z,9.40
2019-02-18T16:42:18.463Z,10.33
2019-02-18T16:44:48.407Z,11.27
2019-02-18T16:47:19.995Z,11.53
2019-02-18T16:49:49.858Z,13.33
2019-02-18T16:52:19.568Z,16.90
2019-02-18T16:54:49.456Z,11.90
2019-02-18T16:57:19.171Z,17.80
2019-02-18T16:59:49.123Z,13.90
2019-02-18T17:02:19.009Z,16.50
2019-02-18T17:04:48.924Z,17.13
2019-02-18T17:07:18.878Z,21.17
2019-02-18T17:09:48.739Z,25.20
2019-02-18T17:12:18.575Z,23.30
2019-02-18T17:14:48.408Z,23.47
2019-02-18T17:17:18.064Z,26.97
2019-02-18T17:19:47.911Z,29.53
2019-02-18T17:22:17.835Z,27.20
2019-02-18T17:24:47.643Z,29.07
2019-02-18T17:27:17.538Z,27.73
2019-02-18T17:29:47.602Z,31.60
2019-02-18T17:32:17.379Z,32.20
2019-02-18T17:34:47.071Z,32.63
2019-02-18T17:37:16.924Z,31.83
2019-02-18T17:39:46.719Z,32.83
2019-02-18T17:42:16.631Z,34.30
2019-02-18T17:44:46.328Z,33.70
2019-02-18T17:47:16.157Z,32.77
2019-02-18T17:49:46.022Z,33.30
2019-02-18T17:52:15.649Z,32.07
2019-02-18T17:54:45.610Z,32.60
2019-02-18T17:57:15.453Z,31.23
2019-02-18T17:59:45.424Z,33.00
2019-02-18T18:02:15.442Z,29.80
2019-02-18T18:04:45.268Z,29.40
2019-02-18T18:07:14.948Z,29.27
2019-02-18T18:09:45.028Z,29.40
2019-02-18T18:12:14.899Z,30.37
2019-02-18T18:14:44.887Z,28.23
2019-02-18T18:17:15.320Z,28.23
2019-02-18T18:19:45.137Z,29.03
2019-02-18T18:22:15.067Z,27.70
2019-02-18T18:24:44.796Z,30.47
2019-02-18T18:27:14.466Z,30.73
2019-02-18T18:29:44.505Z,29.63
2019-02-18T18:32:14.523Z,27.50
2019-02-18T18:34:44.195Z,28.57
2019-02-18T18:37:13.961Z,28.80
2019-02-18T18:39:43.608Z,30.27
2019-02-18T18:42:13.566Z,28.23
2019-02-18T18:44:43.700Z,33.03
2019-02-18T18:47:15.096Z,30.27
2019-02-18T18:49:44.943Z,29.40
2019-02-18T18:52:14.875Z,28.77
2019-02-18T18:54:44.547Z,27.77
2019-02-18T18:57:14.267Z,28.77
2019-02-18T18:59:44.207Z,28.77
2019-02-18T19:02:13.919Z,28.23
2019-02-18T19:04:45.471Z,27.17
2019-02-18T19:07:15.126Z,28.47
2019-02-18T19:09:45.210Z,27.77
2019-02-18T19:12:16.044Z,26.73
2019-02-18T19:14:46.115Z,26.93
2019-02-18T19:17:16.043Z,28.57
2019-02-18T19:19:46.001Z,26.63
2019-02-18T19:22:15.872Z,26.40
2019-02-18T19:24:45.820Z,25.93
2019-02-18T19:27:15.472Z,25.67
2019-02-18T19:29:45.219Z,25.73
2019-02-18T19:32:14.947Z,26.03
2019-02-18T19:34:55.671Z,26.53
2019-02-18T19:37:25.950Z,25.33
2019-02-18T19:39:55.943Z,22.73
2019-02-18T19:42:25.638Z,22.70
2019-02-18T19:44:55.495Z,22.87
2019-02-18T19:47:25.274Z,22.33
2019-02-18T19:49:54.984Z,21.80
2019-02-18T19:52:24.915Z,19.77
2019-02-18T19:54:54.811Z,19.07
2019-02-18T19:57:24.706Z,20.47
2019-02-18T19:59:54.441Z,19.47
2019-02-18T20:02:24.151Z,18.43
2019-02-18T20:04:54.293Z,16.27
2019-02-18T20:07:24.336Z,15.30
2019-02-18T20:09:54.082Z,15.73
2019-02-18T20:12:24.034Z,15.17
2019-02-18T20:14:53.728Z,14.67
2019-02-18T20:17:23.411Z,14.23
2019-02-18T20:19:53.330Z,13.77
2019-02-18T20:22:23.085Z,14.97
2019-02-18T20:24:52.959Z,14.83
2019-02-18T20:27:22.759Z,14.27
2019-02-18T20:29:54.632Z,14.43
2019-02-18T20:32:24.660Z,14.60
2019-02-18T20:34:54.296Z,12.97
2019-02-18T20:37:24.210Z,13.57
2019-02-18T20:39:54.332Z,13.47
2019-02-18T20:42:24.119Z,14.73
2019-02-18T20:44:54.159Z,15.17
2019-02-18T20:47:24.411Z,13.23
2019-02-18T20:49:54.155Z,14.37
2019-02-18T20:52:24.135Z,13.03
2019-02-18T20:54:54.188Z,13.93
2019-02-18T20:57:24.936Z,14.60
2019-02-18T20:59:55.462Z,17.90
2019-02-18T21:02:26.723Z,18.43
2019-02-18T21:04:56.884Z,19.70
2019-02-18T21:07:26.869Z,21.67
2019-02-18T21:09:56.835Z,20.87
2019-02-18T21:12:26.811Z,19.40
2019-02-18T21:14:56.609Z,19.13
2019-02-18T21:17:29.374Z,18.50
2019-02-18T21:19:59.048Z,19.60
2019-02-18T21:22:29.543Z,21.30
2019-02-18T21:24:59.457Z,18.77
2019-02-18T21:27:29.227Z,19.50
2019-02-18T21:29:59.179Z,18.53
2019-02-18T21:32:29.072Z,18.10
2019-02-18T21:34:59.011Z,18.27
2019-02-18T21:37:28.904Z,19.10
2019-02-18T21:39:59.000Z,18.83
2019-02-18T21:42:28.908Z,19.73
2019-02-18T21:44:58.665Z,18.90
2019-02-18T21:47:28.543Z,18.93
2019-02-18T21:49:58.227Z,18.00
2019-02-18T21:52:27.987Z,18.90
2019-02-18T21:54:58.088Z,17.53
2019-02-18T21:57:27.784Z,18.63
2019-02-18T21:59:57.723Z,17.80
2019-02-18T22:02:27.423Z,17.80
2019-02-18T22:04:57.132Z,17.10
2019-02-18T22:07:27.060Z,17.00
2019-02-18T22:09:57.156Z,18.17
2019-02-18T22:12:27.116Z,17.20
2019-02-18T22:14:56.827Z,17.93
2019-02-18T22:17:26.471Z,17.77
2019-02-18T22:19:56.410Z,19.63
2019-02-18T22:22:26.271Z,18.67
2019-02-18T22:24:56.010Z,19.43
2019-02-18T22:27:25.964Z,18.87
2019-02-18T22:29:55.664Z,19.27
2019-02-18T22:32:25.385Z,18.80
2019-02-18T22:34:55.308Z,18.77
2019-02-18T22:37:25.027Z,19.83
2019-02-18T22:39:55.111Z,20.60
2019-02-18T22:42:24.947Z,18.90
2019-02-18T22:44:54.796Z,19.30
2019-02-18T22:47:24.634Z,20.03
2019-02-18T22:49:54.378Z,20.00
2019-02-18T22:52:24.271Z,19.30
2019-02-18T22:54:54.397Z,19.97
2019-02-18T22:57:24.332Z,20.20
2019-02-18T22:59:54.165Z,21.47
2019-02-18T23:02:23.959Z,20.57
2019-02-18T23:04:53.757Z,20.30
2019-02-18T23:07:23.447Z,20.43
2019-02-18T23:09:53.500Z,19.90
2019-02-18T23:12:23.336Z,20.50
2019-02-18T23:14:53.139Z,20.50
2019-02-18T23:17:22.918Z,21.00
2019-02-18T23:19:52.665Z,19.07
2019-02-18T23:22:22.555Z,19.47
2019-02-18T23:24:52.459Z,18.77
2019-02-18T23:27:22.368Z,20.57
2019-02-18T23:29:53.012Z,20.30
2019-02-18T23:32:22.867Z,21.43
2019-02-18T23:34:52.527Z,21.43
2019-02-18T23:37:22.215Z,21.10
2019-02-18T23:39:51.971Z,21.17
2019-02-18T23:42:21.886Z,22.63
2019-02-18T23:44:59.085Z,22.07
2019-02-18T23:47:23.135Z,21.43
2019-02-18T23:49:53.986Z,22.30
2019-02-18T23:52:23.890Z,20.77
2019-02-18T23:54:53.680Z,20.77
2019-02-18T23:57:23.582Z,20.07
2019-02-18T23:59:53.315Z,21.70
